Time;durP1;ratioP1;P1;durP2;ratioP2;P2;SDS_P1;SDS_P2;PMS_P1;PMS_P2;Temp;Humidity;BMP_temperature;BMP_pressure;BME280_temperature;BME280_humidity;BME280_pressure;Samples;Min_cycle;Max_cycle;Signal;HPM_P1;HPM_P2
2023/01/04 00:01:56;;;;;;;26.45;17.00;;;180.10;2252.80;;;;;;5093279;28;20020;-62
2023/01/04 00:04:22;;;;;;;23.80;17.95;;;180.10;2252.80;;;;;;5093172;28;20030;-61
2023/01/04 00:06:48;;;;;;;42.53;27.92;;;180.10;2252.80;;;;;;5093211;28;20028;-61
2023/01/04 00:09:13;;;;;;;53.42;34.75;;;180.10;2252.80;;;;;;5092969;28;20077;-61
2023/01/04 00:11:39;;;;;;;66.65;40.28;;;180.10;2252.80;;;;;;5093070;28;20035;-61
2023/01/04 00:14:05;;;;;;;52.67;36.80;;;204.80;2252.80;;;;;;5093146;28;20012;-62
2023/01/04 00:16:31;;;;;;;56.72;39.42;;;180.00;2252.80;;;;;;5092817;28;20024;-61
2023/01/04 00:18:57;;;;;;;69.75;42.95;;;180.00;2252.80;;;;;;5092989;28;20020;-61
2023/01/04 00:21:28;;;;;;;73.30;43.83;;;180.00;2252.80;;;;;;5093133;28;20016;-61
2023/01/04 00:23:56;;;;;;;71.43;49.00;;;180.00;2252.80;;;;;;5092717;28;20024;-61
2023/01/04 00:26:24;;;;;;;75.07;50.55;;;179.90;2252.80;;;;;;5092764;28;20020;-62
2023/01/04 00:28:58;;;;;;;62.08;40.45;;;179.90;2252.80;;;;;;5092581;28;20552;-60
2023/01/04 00:31:25;;;;;;;77.63;47.72;;;179.80;2252.80;;;;;;5092865;28;20040;-60
2023/01/04 00:33:56;;;;;;;111.85;63.13;;;179.80;2252.80;;;;;;5092898;28;20028;-61
2023/01/04 00:36:22;;;;;;;60.75;36.63;;;179.80;2252.80;;;;;;5092736;28;20478;-61
2023/01/04 00:39:05;;;;;;;116.10;76.57;;;179.80;2252.80;;;;;;5092140;28;20466;-62
2023/01/04 00:41:34;;;;;;;;;;;179.40;2252.80;;;;;;5092825;28;20035;-61
2023/01/04 00:44:02;;;;;;;165.52;104.95;;;179.20;2252.80;;;;;;5092324;28;19915;-62
2023/01/04 00:46:28;;;;;;;170.15;110.63;;;154.50;2252.80;;;;;;5092371;28;20040;-60
2023/01/04 00:48:54;;;;;;;163.63;106.55;;;154.50;2252.80;;;;;;5092601;28;20428;-61
2023/01/04 00:51:19;;;;;;;173.70;104.53;;;154.50;2252.80;;;;;;5092273;28;20024;-60
2023/01/04 00:53:45;;;;;;;123.43;80.45;;;154.50;2252.80;;;;;;5092474;28;20027;-61
2023/01/04 00:56:11;;;;;;;121.05;76.35;;;154.50;2252.80;;;;;;5092263;28;20081;-61
2023/01/04 00:58:36;;;;;;;150.60;97.45;;;179.20;2252.80;;;;;;5092049;28;20020;-61
2023/01/04 01:01:06;;;;;;;155.15;95.88;;;179.20;2252.80;;;;;;5092322;28;20020;-62
2023/01/04 01:03:33;;;;;;;147.20;92.85;;;179.20;2252.80;;;;;;5092357;28;20032;-61
2023/01/04 01:06:06;;;;;;;139.50;94.18;;;179.20;2252.80;;;;;;5092096;28;20031;-61
2023/01/04 01:08:33;;;;;;;131.43;86.40;;;179.20;2252.80;;;;;;5091949;28;20020;-61
2023/01/04 01:11:07;;;;;;;115.40;75.03;;;154.50;2252.80;;;;;;5090922;28;20035;-62
2023/01/04 01:13:34;;;;;;;103.82;65.82;;;154.50;2252.80;;;;;;5092222;28;20040;-61
2023/01/04 01:16:08;;;;;;;144.63;90.25;;;179.20;2252.80;;;;;;5091851;28;20164;-62
2023/01/04 01:18:35;;;;;;;161.00;108.90;;;154.50;2252.80;;;;;;5091982;28;20039;-61
2023/01/04 01:21:09;;;;;;;191.02;124.65;;;154.30;2252.80;;;;;;5091749;28;20023;-61
2023/01/04 01:23:36;;;;;;;196.15;120.63;;;154.10;2252.80;;;;;;5091544;28;20021;-61
2023/01/04 01:26:06;;;;;;;185.32;120.57;;;153.90;2252.80;;;;;;5091720;28;20375;-61
2023/01/04 01:28:34;;;;;;;166.52;115.70;;;154.10;2252.80;;;;;;5091568;28;20028;-61
2023/01/04 01:31:08;;;;;;;187.15;123.43;;;154.10;2252.80;;;;;;5091573;28;20031;-61
2023/01/04 01:33:36;;;;;;;187.38;126.97;;;154.10;2252.80;;;;;;5091609;28;20062;-62
2023/01/04 01:36:03;;;;;;;176.60;121.90;;;154.00;2252.80;;;;;;5091553;28;20016;-62
2023/01/04 01:38:29;;;;;;;123.85;83.00;;;154.10;2252.80;;;;;;5090922;28;20028;-59
2023/01/04 01:40:55;;;;;;;62.53;42.35;;;154.10;2252.80;;;;;;5091813;28;20085;-66
2023/01/04 01:43:42;;;;;;;59.72;38.35;;;154.20;2252.80;;;;;;5091610;28;20043;-66
2023/01/04 01:46:08;;;;;;;36.53;24.88;;;154.20;2252.80;;;;;;5090704;28;20489;-61
2023/01/04 01:48:34;;;;;;;46.03;26.73;;;154.30;2252.80;;;;;;5091516;28;20432;-62
2023/01/04 01:51:02;;;;;;;89.07;53.92;;;154.40;2252.80;;;;;;5090970;28;20028;-63
2023/01/04 01:53:32;;;;;;;65.88;43.13;;;154.40;2252.80;;;;;;5091165;28;20028;-62
2023/01/04 01:55:59;;;;;;;119.13;81.10;;;154.40;2252.80;;;;;;5091051;28;20028;-63
2023/01/04 01:58:32;;;;;;;78.55;51.92;;;154.30;2252.80;;;;;;5091056;28;20036;-64
2023/01/04 02:00:58;;;;;;;89.05;57.17;;;154.20;2252.80;;;;;;5091101;28;20028;-66
2023/01/04 02:03:34;;;;;;;131.95;84.10;;;154.30;2252.80;;;;;;5091077;28;20104;-65
2023/01/04 02:06:02;;;;;;;143.77;100.13;;;154.20;2252.80;;;;;;5090699;28;20056;-64
2023/01/04 02:08:29;;;;;;;140.30;94.78;;;154.20;2252.80;;;;;;5090797;28;20108;-67
2023/01/04 02:10:55;;;;;;;140.10;91.20;;;154.20;2252.80;;;;;;5091078;28;20497;-65
2023/01/04 02:14:25;;;;;;;139.85;90.97;;;154.10;2252.80;;;;;;5090884;28;20024;-63
2023/01/04 02:16:29;;;;;;;134.07;87.72;;;154.10;2252.80;;;;;;5090770;28;20028;-65
2023/01/04 02:19:24;;;;;;;158.13;100.85;;;153.90;2252.80;;;;;;5090661;28;20028;-62
2023/01/04 02:22:20;;;;;;;158.38;95.03;;;128.90;2252.80;;;;;;5090187;28;20056;-62
2023/01/04 02:25:07;;;;;;;427.70;140.07;;;128.60;2252.80;;;;;;5090372;28;20024;-62
2023/01/04 02:27:57;;;;;;;258.92;102.35;;;128.30;2252.80;;;;;;5090095;28;20427;-61
2023/01/04 02:30:51;;;;;;;499.88;106.57;;;128.50;2252.80;;;;;;5090486;28;20059;-61
2023/01/04 02:33:35;;;;;;;545.92;126.85;;;128.40;2252.80;;;;;;5090266;28;20072;-61
2023/01/04 02:36:13;;;;;;;414.60;99.63;;;128.00;2252.80;;;;;;5089292;28;20051;-62
2023/01/04 02:39:03;;;;;;;397.38;95.88;;;103.30;2227.20;;;;;;5088475;28;20118;-62
2023/01/04 02:41:49;;;;;;;371.08;99.30;;;103.30;2227.20;;;;;;5089931;28;20390;-62
2023/01/04 02:47:14;;;;;;;332.40;91.20;;;103.10;2227.20;;;;;;5090141;28;20047;-62
2023/01/04 02:52:26;;;;;;;315.13;91.90;;;103.20;2227.20;;;;;;5090422;28;20039;-64
2023/01/04 02:54:56;;;;;;;238.85;90.80;;;128.00;2252.80;;;;;;5090559;28;20024;-62
2023/01/04 02:57:30;;;;;;;166.65;73.38;;;128.10;2252.80;;;;;;5090150;28;20397;-62
2023/01/04 03:00:19;;;;;;;170.25;75.45;;;128.20;2252.80;;;;;;5090239;28;20098;-62
2023/01/04 03:06:15;;;;;;;222.05;88.93;;;128.10;2252.80;;;;;;5096760;28;20175;-62
2023/01/04 03:08:56;;;;;;;236.13;75.75;;;103.30;2227.20;;;;;;5096808;28;20020;-62
2023/01/04 03:14:18;;;;;;;162.82;77.38;;;103.20;2227.20;;;;;;5096980;28;20496;-62
2023/01/04 03:16:44;;;;;;;116.55;57.78;;;103.30;2227.20;;;;;;5096847;28;20096;-62
2023/01/04 03:19:13;;;;;;;126.65;58.80;;;103.30;2227.20;;;;;;5096602;28;20031;-63
2023/01/04 03:21:43;;;;;;;105.70;61.22;;;103.30;2227.20;;;;;;5096264;28;20539;-61
2023/01/04 03:35:51;;;;;;;96.10;52.40;;;103.20;2227.20;;;;;;5014547;28;20076;-61
2023/01/04 03:50:21;;;;;;;75.03;43.40;;;128.00;2252.80;;;;;;5014536;28;20404;-61
2023/01/04 03:52:48;;;;;;;55.78;35.63;;;128.00;2252.80;;;;;;5013946;28;20484;-61
2023/01/04 03:55:17;;;;;;;69.68;46.92;;;103.30;2227.20;;;;;;5014322;28;20046;-64
2023/01/04 03:57:44;;;;;;;86.28;55.03;;;128.10;2252.80;;;;;;5014202;28;20050;-62
2023/01/04 04:00:15;;;;;;;61.88;42.30;;;128.10;2252.80;;;;;;5014017;28;20531;-62
2023/01/04 04:02:41;;;;;;;62.50;39.08;;;128.20;2252.80;;;;;;5014414;28;20072;-62
2023/01/04 04:10:40;;;;;;;102.85;60.95;;;128.50;2252.80;;;;;;5096032;28;20089;-62
2023/01/04 04:13:05;;;;;;;90.38;58.72;;;128.60;2252.80;;;;;;5096069;28;20054;-63
2023/01/04 04:15:31;;;;;;;70.25;44.85;;;128.70;2252.80;;;;;;5092498;28;20099;-62
2023/01/04 04:17:57;;;;;;;67.63;43.95;;;128.80;2252.80;;;;;;5092830;28;20032;-63
2023/01/04 04:20:22;;;;;;;82.20;49.58;;;128.80;2252.80;;;;;;5093151;28;20348;-64
2023/01/04 04:22:48;;;;;;;83.53;53.47;;;128.80;2252.80;;;;;;5092643;28;20477;-62
2023/01/04 04:25:14;;;;;;;86.88;56.80;;;128.90;2252.80;;;;;;5092733;28;20024;-63
2023/01/04 04:27:39;;;;;;;63.90;37.20;;;153.60;2252.80;;;;;;5092942;28;20028;-65
2023/01/04 04:30:06;;;;;;;48.33;32.58;;;153.70;2252.80;;;;;;5093071;28;20028;-70
2023/01/04 04:32:31;;;;;;;48.83;29.10;;;153.70;2252.80;;;;;;5095864;28;20367;-63
2023/01/04 04:34:57;;;;;;;68.82;42.35;;;153.80;2252.80;;;;;;5094819;28;20045;-66
2023/01/04 04:37:24;;;;;;;52.15;32.95;;;154.00;2252.80;;;;;;5095339;28;20377;-68
2023/01/04 04:39:49;;;;;;;59.60;38.10;;;154.00;2252.80;;;;;;5093692;28;20040;-65
2023/01/04 04:42:15;;;;;;;71.32;43.00;;;154.10;2252.80;;;;;;5094345;28;20081;-64
2023/01/04 04:44:41;;;;;;;158.45;93.15;;;154.10;2252.80;;;;;;5092299;28;20482;-62
2023/01/04 04:47:06;;;;;;;56.90;34.15;;;154.10;2252.80;;;;;;5092223;28;20036;-62
2023/01/04 04:49:32;;;;;;;27.65;16.27;;;154.20;2252.80;;;;;;5092688;28;20078;-63
2023/01/04 04:51:58;;;;;;;27.40;16.90;;;154.10;2252.80;;;;;;5092291;28;20035;-62
2023/01/04 04:54:24;;;;;;;40.97;24.38;;;154.10;2252.80;;;;;;5092548;28;20111;-66
2023/01/04 04:56:49;;;;;;;39.97;22.98;;;154.30;2252.80;;;;;;5092354;28;20040;-64
2023/01/04 04:59:15;;;;;;;43.28;24.67;;;154.30;2252.80;;;;;;5092154;28;20031;-64
2023/01/04 05:01:41;;;;;;;83.22;54.72;;;154.40;2252.80;;;;;;5092335;28;20093;-64
2023/01/04 05:04:07;;;;;;;54.47;37.40;;;154.30;2252.80;;;;;;5092000;28;20024;-62
2023/01/04 05:06:33;;;;;;;90.95;58.22;;;154.40;2252.80;;;;;;5092102;28;20055;-61
2023/01/04 05:08:58;;;;;;;95.25;60.97;;;154.40;2252.80;;;;;;5091974;28;20462;-62
2023/01/04 05:14:09;;;;;;;99.43;64.32;;;154.50;2252.80;;;;;;5091851;28;20043;-65
2023/01/04 05:16:35;;;;;;;89.07;57.60;;;154.50;2252.80;;;;;;5091860;28;20029;-63
2023/01/04 05:19:01;;;;;;;68.38;47.20;;;154.50;2252.80;;;;;;5091927;28;20474;-62
2023/01/04 05:21:26;;;;;;;56.33;39.08;;;154.50;2252.80;;;;;;5091450;28;20024;-62
2023/01/04 05:23:52;;;;;;;85.88;51.65;;;179.20;2252.80;;;;;;5092036;28;20073;-62
2023/01/04 05:26:18;;;;;;;108.72;70.35;;;179.20;2252.80;;;;;;5091146;28;20024;-62
2023/01/04 05:28:43;;;;;;;108.28;69.13;;;154.50;2252.80;;;;;;5091713;28;20024;-62
2023/01/04 05:31:09;;;;;;;98.00;66.13;;;154.30;2252.80;;;;;;5091362;28;20020;-65
2023/01/04 05:33:35;;;;;;;88.72;57.58;;;154.30;2252.80;;;;;;5091478;28;20020;-63
2023/01/04 05:36:02;;;;;;;91.95;60.88;;;154.40;2252.80;;;;;;5091695;28;20028;-63
2023/01/04 05:38:29;;;;;;;91.15;57.60;;;154.40;2252.80;;;;;;5091445;28;20043;-64
2023/01/04 05:40:55;;;;;;;88.43;56.38;;;154.50;2252.80;;;;;;5091627;28;20056;-63
2023/01/04 05:43:22;;;;;;;86.75;57.03;;;154.50;2252.80;;;;;;5091446;28;20115;-62
2023/01/04 05:45:54;;;;;;;108.07;80.05;;;179.20;2252.80;;;;;;5091091;28;20052;-63
2023/01/04 05:48:21;;;;;;;85.45;62.30;;;154.50;2252.80;;;;;;5091172;28;20056;-62
2023/01/04 05:50:47;;;;;;;97.53;66.28;;;179.20;2252.80;;;;;;5090900;28;20024;-62
2023/01/04 05:53:16;;;;;;;100.82;69.88;;;179.20;2252.80;;;;;;5091337;28;20028;-62
2023/01/04 05:55:42;;;;;;;98.45;64.25;;;179.30;2252.80;;;;;;5091293;28;20030;-63
2023/01/04 05:58:08;;;;;;;103.57;74.03;;;179.30;2252.80;;;;;;5091053;28;20036;-62
2023/01/04 06:00:34;;;;;;;97.10;68.10;;;179.20;2252.80;;;;;;5091285;28;20020;-63
2023/01/04 06:02:59;;;;;;;92.95;62.00;;;179.30;2252.80;;;;;;5090707;28;20107;-63
2023/01/04 06:05:25;;;;;;;86.60;59.78;;;179.30;2252.80;;;;;;5091839;28;20617;-62
2023/01/04 06:07:51;;;;;;;83.35;54.97;;;179.60;2252.80;;;;;;5091227;28;20051;-65
2023/01/04 06:10:17;;;;;;;56.40;43.75;;;179.30;2252.80;;;;;;5090779;28;20359;-62
2023/01/04 06:12:44;;;;;;;62.95;41.58;;;179.30;2252.80;;;;;;5090928;28;20043;-63
2023/01/04 06:15:10;;;;;;;48.63;32.47;;;179.40;2252.80;;;;;;5090624;28;20035;-62
2023/01/04 06:17:37;;;;;;;35.45;23.38;;;179.50;2252.80;;;;;;5089921;28;20383;-62
2023/01/04 06:20:04;;;;;;;52.35;37.90;;;179.70;2252.80;;;;;;5090139;28;20024;-63
2023/01/04 06:22:31;;;;;;;104.47;70.45;;;179.70;2252.80;;;;;;5089856;28;20060;-62
2023/01/04 06:24:57;;;;;;;112.75;77.78;;;179.80;2252.80;;;;;;5090589;28;20024;-62
2023/01/04 06:27:23;;;;;;;113.07;76.90;;;179.70;2252.80;;;;;;5090749;28;20028;-66
2023/01/04 06:29:49;;;;;;;131.02;95.38;;;179.80;2252.80;;;;;;5090473;28;20408;-63
2023/01/04 06:32:15;;;;;;;138.18;94.85;;;179.80;2252.80;;;;;;5090602;28;20032;-62
2023/01/04 06:34:40;;;;;;;146.95;100.20;;;179.80;2252.80;;;;;;5090214;28;20020;-63
2023/01/04 06:37:06;;;;;;;120.57;83.28;;;179.70;2252.80;;;;;;5089730;28;20085;-63
2023/01/04 06:39:32;;;;;;;88.28;62.30;;;179.80;2252.80;;;;;;5089947;28;20032;-63
2023/01/04 06:41:58;;;;;;;104.47;67.60;;;179.90;2252.80;;;;;;5090302;28;20035;-65
2023/01/04 06:44:23;;;;;;;77.13;50.13;;;179.80;2252.80;;;;;;5090271;28;20036;-65
2023/01/04 06:46:49;;;;;;;62.15;39.33;;;179.90;2252.80;;;;;;5090110;28;20024;-62
2023/01/04 06:49:15;;;;;;;42.40;24.50;;;180.00;2252.80;;;;;;5090300;28;20374;-62
2023/01/04 06:51:40;;;;;;;35.05;23.58;;;180.10;2252.80;;;;;;5089975;28;20099;-62
2023/01/04 06:54:08;;;;;;;38.78;29.83;;;204.80;2252.80;;;;;;5089859;28;20024;-61
2023/01/04 06:56:34;;;;;;;44.97;34.83;;;204.90;2252.80;;;;;;5090207;28;20485;-62
2023/01/04 06:59:00;;;;;;;39.67;27.98;;;205.00;2252.80;;;;;;5089565;28;20144;-62
2023/01/04 07:01:25;;;;;;;37.03;27.35;;;205.10;2252.80;;;;;;5090244;28;20060;-63
2023/01/04 07:03:51;;;;;;;36.20;26.48;;;205.10;2252.80;;;;;;5090057;28;20024;-64
2023/01/04 07:06:17;;;;;;;35.92;27.63;;;205.10;2252.80;;;;;;5089778;28;20467;-62
2023/01/04 07:08:43;;;;;;;136.70;83.93;;;205.10;2252.80;;;;;;5090102;28;20070;-64
2023/01/04 07:11:08;;;;;;;41.38;24.40;;;205.20;2252.80;;;;;;5090035;28;20066;-64
2023/01/04 07:13:34;;;;;;;28.23;21.30;;;205.20;2252.80;;;;;;5089990;28;20039;-63
2023/01/04 07:16:00;;;;;;;34.83;25.17;;;205.20;2252.80;;;;;;5089919;28;20020;-64
2023/01/04 07:18:25;;;;;;;35.78;24.48;;;205.20;2252.80;;;;;;5089974;28;20119;-61
2023/01/04 07:20:51;;;;;;;53.63;35.03;;;205.30;2252.80;;;;;;5089916;28;20017;-61
2023/01/04 07:23:17;;;;;;;37.45;28.55;;;205.30;2252.80;;;;;;5089875;28;20137;-61
2023/01/04 07:25:42;;;;;;;35.78;27.40;;;205.40;2252.80;;;;;;5089819;28;20405;-63
2023/01/04 07:28:08;;;;;;;35.03;24.17;;;205.50;2252.80;;;;;;5089784;28;20020;-61
2023/01/04 07:30:34;;;;;;;39.22;25.77;;;205.50;2252.80;;;;;;5089975;28;20061;-62
2023/01/04 07:33:00;;;;;;;39.63;35.38;;;205.60;2252.80;;;;;;5089640;28;20063;-63
2023/01/04 07:35:26;;;;;;;42.58;30.13;;;205.60;2252.80;;;;;;5089945;28;20021;-63
2023/01/04 07:37:52;;;;;;;39.05;29.60;;;205.70;2252.80;;;;;;5089720;28;20497;-61
2023/01/04 07:40:18;;;;;;;34.28;24.80;;;205.70;2252.80;;;;;;5089633;28;20056;-61
2023/01/04 07:42:52;;;;;;;37.85;27.23;;;230.40;2252.80;;;;;;5089861;28;20392;-63
2023/01/04 07:45:17;;;;;;;35.92;25.23;;;230.40;2252.80;;;;;;5089496;28;20050;-63
2023/01/04 07:47:43;;;;;;;38.33;23.05;;;230.40;2252.80;;;;;;5089847;28;20024;-63
2023/01/04 07:50:09;;;;;;;35.58;23.98;;;230.40;2252.80;;;;;;5092176;28;20024;-61
2023/01/04 07:52:34;;;;;;;41.80;31.65;;;230.50;2252.80;;;;;;5093400;28;20036;-64
2023/01/04 07:55:00;;;;;;;33.13;24.60;;;230.60;2252.80;;;;;;5093433;28;20024;-60
2023/01/04 07:57:26;;;;;;;35.97;26.45;;;230.60;2252.80;;;;;;5093709;28;20470;-61
2023/01/04 07:59:51;;;;;;;32.25;24.25;;;230.60;2252.80;;;;;;5093508;28;20385;-63
2023/01/04 08:02:17;;;;;;;39.53;26.25;;;230.60;2252.80;;;;;;5093016;28;20020;-62
2023/01/04 08:04:43;;;;;;;34.47;24.20;;;230.60;2252.80;;;;;;5093360;28;20028;-63
2023/01/04 08:07:09;;;;;;;31.30;24.00;;;230.60;2252.80;;;;;;5093013;28;20089;-60
2023/01/04 08:09:34;;;;;;;32.67;23.38;;;230.60;2252.80;;;;;;5093142;28;20039;-60
2023/01/04 08:12:00;;;;;;;32.53;22.67;;;230.70;2252.80;;;;;;5093187;28;20430;-63
2023/01/04 08:14:26;;;;;;;31.52;23.00;;;230.70;2252.80;;;;;;5091820;28;20127;-66
2023/01/04 08:16:51;;;;;;;32.78;22.77;;;230.70;2252.80;;;;;;5093063;28;20040;-61
2023/01/04 08:19:19;;;;;;;33.65;24.45;;;230.70;2252.80;;;;;;5092864;28;20027;-62
2023/01/04 08:21:46;;;;;;;37.22;24.00;;;230.70;2252.80;;;;;;5092869;28;20502;-62
2023/01/04 08:24:17;;;;;;;29.17;24.05;;;230.60;2252.80;;;;;;5092893;28;20024;-61
2023/01/04 08:26:44;;;;;;;33.40;23.73;;;230.70;2252.80;;;;;;5092739;28;20469;-61
2023/01/04 08:29:10;;;;;;;36.60;25.52;;;230.70;2252.80;;;;;;5092520;28;20073;-60
2023/01/04 08:31:36;;;;;;;53.05;47.28;;;230.80;2252.80;;;;;;5092626;28;20427;-60
2023/01/04 08:34:04;;;;;;;32.55;22.85;;;230.90;2252.80;;;;;;5092645;28;20107;-64
2023/01/04 08:36:33;;;;;;;37.78;26.73;;;230.90;2252.80;;;;;;5092323;28;20024;-61
2023/01/04 08:39:01;;;;;;;36.83;27.75;;;230.90;2252.80;;;;;;5092500;28;20138;-63
2023/01/04 08:41:28;;;;;;;32.55;22.83;;;231.10;2252.80;;;;;;5092599;28;20036;-62
2023/01/04 08:43:54;;;;;;;36.35;25.27;;;231.10;2252.80;;;;;;5091445;28;20074;-62
2023/01/04 08:46:19;;;;;;;38.33;26.27;;;231.20;2252.80;;;;;;5092188;28;20044;-64
2023/01/04 08:48:45;;;;;;;38.42;26.10;;;231.20;2252.80;;;;;;5092533;28;20094;-62
2023/01/04 08:51:13;;;;;;;33.35;25.17;;;231.30;2252.80;;;;;;5092329;28;20416;-64
2023/01/04 08:53:39;;;;;;;41.55;26.33;;;231.30;2252.80;;;;;;5092600;28;20023;-63
2023/01/04 08:56:06;;;;;;;34.38;25.13;;;231.30;2252.80;;;;;;5092238;28;20391;-63
2023/01/04 08:58:33;;;;;;;35.25;25.52;;;231.30;2252.80;;;;;;5092306;28;20036;-62
2023/01/04 09:01:10;;;;;;;35.58;24.27;;;256.00;2252.80;;;;;;5091558;28;20416;-63
2023/01/04 09:03:37;;;;;;;40.10;24.95;;;256.20;2252.80;;;;;;5092050;28;20095;-62
2023/01/04 09:06:04;;;;;;;47.15;37.20;;;256.30;2252.80;;;;;;5092408;28;20031;-64
2023/01/04 09:08:32;;;;;;;36.72;28.13;;;256.40;2252.80;;;;;;5091808;28;20054;-62
2023/01/04 09:11:02;;;;;;;39.40;29.08;;;256.50;2252.80;;;;;;5092093;28;20028;-61
2023/01/04 09:13:28;;;;;;;33.67;23.70;;;256.70;2252.80;;;;;;5091844;28;20386;-64
2023/01/04 09:15:54;;;;;;;37.10;26.23;;;256.80;2252.80;;;;;;5091929;28;20020;-64
2023/01/04 09:18:19;;;;;;;35.38;25.25;;;256.80;2252.80;;;;;;5091546;28;20441;-65
2023/01/04 09:20:45;;;;;;;38.63;26.73;;;256.80;2252.80;;;;;;5091930;28;20024;-64
2023/01/04 09:23:10;;;;;;;47.85;35.13;;;281.60;2278.40;;;;;;5091967;28;20107;-63
2023/01/04 09:25:38;;;;;;;49.47;29.73;;;281.60;2278.40;;;;;;5091421;28;20474;-60
2023/01/04 09:28:04;;;;;;;35.85;24.88;;;256.90;2252.80;;;;;;5091880;28;20490;-62
2023/01/04 09:30:30;;;;;;;69.97;44.45;;;281.60;2278.40;;;;;;5091447;28;20059;-61
2023/01/04 09:32:56;;;;;;;52.08;36.35;;;281.70;2278.40;;;;;;5091523;28;20032;-61
2023/01/04 09:35:22;;;;;;;47.13;33.25;;;281.80;2278.40;;;;;;5091678;28;20024;-64
2023/01/04 09:37:47;;;;;;;36.25;26.58;;;282.00;2278.40;;;;;;5091347;28;20032;-63
2023/01/04 09:40:22;;;;;;;49.65;39.25;;;281.90;2278.40;;;;;;5091520;28;20028;-61
2023/01/04 09:42:49;;;;;;;51.50;36.58;;;282.00;2278.40;;;;;;5091226;28;20105;-64
2023/01/04 09:45:21;;;;;;;47.78;33.05;;;282.00;2278.40;;;;;;5090912;28;20528;-61
2023/01/04 09:48:02;;;;;;;43.53;33.60;;;282.10;2278.40;;;;;;5091056;28;20119;-60
2023/01/04 09:50:33;;;;;;;132.45;83.22;;;282.10;2278.40;;;;;;5091398;28;20086;-61
2023/01/04 09:53:20;;;;;;;79.47;54.55;;;282.10;2278.40;;;;;;5091271;28;20028;-60
2023/01/04 09:55:49;;;;;;;32.38;23.88;;;282.10;2278.40;;;;;;5090871;28;20024;-61
2023/01/04 09:58:34;;;;;;;64.25;45.88;;;282.20;2278.40;;;;;;5091563;28;20462;-60
2023/01/04 10:01:15;;;;;;;51.13;34.00;;;282.40;2278.40;;;;;;5090771;28;20056;-63
2023/01/04 10:04:06;;;;;;;29.95;20.38;;;282.40;2278.40;;;;;;5090943;28;20367;-59
2023/01/04 10:06:33;;;;;;;34.58;24.38;;;282.50;2278.40;;;;;;5090740;28;20111;-60
2023/01/04 10:09:05;;;;;;;41.63;27.23;;;307.20;2304.00;;;;;;5090986;28;20032;-64
2023/01/04 10:11:55;;;;;;;40.80;29.45;;;307.30;2304.00;;;;;;5091110;28;20052;-60
2023/01/04 10:14:54;;;;;;;32.38;19.98;;;307.40;2304.00;;;;;;5087943;28;20113;-63
2023/01/04 10:17:46;;;;;;;31.83;21.05;;;307.60;2304.00;;;;;;5088841;28;20043;-60
2023/01/04 10:20:45;;;;;;;29.52;19.58;;;307.60;2304.00;;;;;;5089218;28;20454;-59
2023/01/04 10:23:40;;;;;;;32.42;23.33;;;307.90;2304.00;;;;;;5088976;28;20120;-62
2023/01/04 10:26:14;;;;;;;50.70;38.67;;;308.00;2304.00;;;;;;5088266;28;20103;-59
2023/01/04 10:28:56;;;;;;;59.08;45.22;;;308.10;2304.00;;;;;;5088764;28;20039;-61
2023/01/04 10:31:22;;;;;;;29.15;22.70;;;332.80;2329.60;;;;;;5089071;28;20032;-60
2023/01/04 10:33:48;;;;;;;24.92;18.45;;;332.90;2329.60;;;;;;5088701;28;20427;-62
2023/01/04 10:36:21;;;;;;;30.77;22.42;;;333.00;2329.60;;;;;;5089017;28;20028;-60
2023/01/04 10:38:58;;;;;;;20.77;16.38;;;332.90;2329.60;;;;;;5088242;28;20044;-59
2023/01/04 10:41:27;;;;;;;27.98;21.98;;;332.90;2329.60;;;;;;5088888;28;20034;-59
2023/01/04 10:43:59;;;;;;;25.45;20.63;;;333.20;2329.60;;;;;;5088710;28;20466;-60
2023/01/04 10:46:30;;;;;;;34.00;24.08;;;333.20;2329.60;;;;;;5088251;28;20044;-62
2023/01/04 10:49:19;;;;;;;29.75;20.08;;;333.40;2329.60;;;;;;5088558;28;20036;-60
2023/01/04 10:52:10;;;;;;;32.60;25.23;;;333.40;2329.60;;;;;;5006178;28;20037;-60
2023/01/04 10:55:00;;;;;;;82.28;58.65;;;333.60;2329.60;;;;;;5006144;28;20046;-62
2023/01/04 10:57:43;;;;;;;324.33;230.43;;;333.60;2329.60;;;;;;5005930;28;20042;-62
2023/01/04 11:00:22;;;;;;;95.13;76.50;;;333.70;2329.60;;;;;;5005938;28;20030;-64
2023/01/04 11:03:07;;;;;;;50.53;37.30;;;333.60;2329.60;;;;;;5005693;28;20033;-63
2023/01/04 11:05:46;;;;;;;34.30;26.75;;;333.60;2329.60;;;;;;5008531;28;20145;-61
2023/01/04 11:08:34;;;;;;;29.30;22.70;;;333.70;2329.60;;;;;;5007919;28;20029;-60
2023/01/04 11:11:08;;;;;;;37.03;30.00;;;358.50;2329.60;;;;;;5007902;28;20560;-61
2023/01/04 11:13:34;;;;;;;22.75;14.93;;;358.60;2329.60;;;;;;5008199;28;20026;-61
2023/01/04 11:16:02;;;;;;;36.53;22.98;;;358.50;2329.60;;;;;;5007943;28;20073;-60
2023/01/04 11:18:30;;;;;;;41.28;32.92;;;358.50;2329.60;;;;;;5007677;28;20073;-62
2023/01/04 11:20:57;;;;;;;54.35;41.15;;;358.50;2329.60;;;;;;5008055;28;20026;-61
2023/01/04 11:23:24;;;;;;;25.65;19.00;;;358.50;2329.60;;;;;;5008001;28;20510;-58
2023/01/04 11:25:59;;;;;;;24.10;16.80;;;358.60;2329.60;;;;;;5011791;28;20480;-60
2023/01/04 11:28:36;;;;;;;39.95;30.67;;;358.60;2329.60;;;;;;5042060;28;20039;-60
2023/01/04 11:31:21;;;;;;;22.60;17.00;;;358.70;2329.60;;;;;;5094026;28;20032;-60
2023/01/04 11:33:57;;;;;;;79.47;59.78;;;358.80;2329.60;;;;;;5093886;28;20028;-61
2023/01/04 11:36:44;;;;;;;33.97;27.30;;;358.80;2329.60;;;;;;5093944;28;20024;-61
2023/01/04 11:39:22;;;;;;;32.92;28.58;;;358.80;2329.60;;;;;;5093260;28;20043;-62
2023/01/04 11:42:02;;;;;;;33.15;24.08;;;358.80;2329.60;;;;;;5093809;28;20025;-61
2023/01/04 11:44:28;;;;;;;29.88;24.40;;;358.50;2329.60;;;;;;5093409;28;20143;-61
2023/01/04 11:47:18;;;;;;;22.90;14.70;;;333.50;2329.60;;;;;;5093587;28;20054;-63
2023/01/04 11:49:44;;;;;;;19.55;14.60;;;333.40;2329.60;;;;;;5092522;28;20525;-64
2023/01/04 11:52:32;;;;;;;31.67;22.30;;;333.20;2329.60;;;;;;5093420;28;20458;-61
2023/01/04 11:55:26;;;;;;;41.53;33.17;;;333.50;2329.60;;;;;;5093474;28;20031;-62
2023/01/04 11:58:11;;;;;;;25.77;20.58;;;333.60;2329.60;;;;;;5011000;28;20066;-61
2023/01/04 12:00:49;;;;;;;29.77;25.77;;;333.70;2329.60;;;;;;5011066;28;20069;-60
2023/01/04 12:03:25;;;;;;;37.85;30.38;;;333.20;2329.60;;;;;;5011184;28;20036;-60
2023/01/04 12:05:51;;;;;;;33.70;24.40;;;332.90;2329.60;;;;;;5011329;28;20088;-59
2023/01/04 12:08:30;;;;;;;28.85;21.05;;;333.00;2329.60;;;;;;5010829;28;20033;-60
2023/01/04 12:10:59;;;;;;;25.05;18.77;;;332.90;2329.60;;;;;;5011191;28;20476;-60
2023/01/04 12:13:24;;;;;;;23.73;19.70;;;333.20;2329.60;;;;;;5011314;28;20491;-61
2023/01/04 12:16:02;;;;;;;15.88;12.50;;;333.40;2329.60;;;;;;5010564;28;20046;-62
2023/01/04 12:18:33;;;;;;;29.35;22.60;;;333.30;2304.00;;;;;;5010837;28;20044;-60
2023/01/04 12:21:00;;;;;;;27.35;20.13;;;333.20;2278.40;;;;;;5010583;28;20084;-60
2023/01/04 12:23:27;;;;;;;22.67;18.10;;;333.20;2304.00;;;;;;5010679;28;20068;-60
2023/01/04 12:25:54;;;;;;;27.52;20.55;;;333.50;2329.60;;;;;;5009391;28;20069;-60
2023/01/04 12:28:32;;;;;;;20.08;12.65;;;333.40;2278.40;;;;;;5010141;28;20044;-60
2023/01/04 12:31:20;;;;;;;46.83;30.30;;;333.20;2227.20;;;;;;5007899;28;20030;-63
2023/01/04 12:33:48;;;;;;;48.50;38.45;;;333.00;2227.20;;;;;;5013450;28;20044;-60
2023/01/04 12:36:19;;;;;;;29.85;20.00;;;333.10;2278.40;;;;;;5091549;28;20024;-59
2023/01/04 12:38:54;;;;;;;19.85;13.93;;;333.10;2304.00;;;;;;5092568;28;20040;-60
2023/01/04 12:41:21;;;;;;;14.60;9.93;;;333.20;2304.00;;;;;;5092044;28;20051;-60
2023/01/04 12:43:48;;;;;;;16.48;13.32;;;333.20;2304.00;;;;;;5092393;28;20115;-60
2023/01/04 12:49:26;;;;;;;10.52;7.80;;;333.20;2304.00;;;;;;5092468;28;20077;-59
2023/01/04 12:52:06;;;;;;;11.20;8.77;;;333.20;2329.60;;;;;;5092497;28;20102;-60
2023/01/04 12:55:02;;;;;;;12.43;8.82;;;333.00;2278.40;;;;;;5092420;28;20035;-59
2023/01/04 12:57:35;;;;;;;12.50;7.93;;;333.00;2304.00;;;;;;5092109;28;20028;-59
2023/01/04 13:00:10;;;;;;;14.50;11.77;;;333.00;2329.60;;;;;;5092041;28;20103;-61